createdAt,value
2023-03-28T00:00:09.642Z,1003.18
2023-03-28T00:01:09.641Z,1003.19
2023-03-28T00:02:09.650Z,1003.20
2023-03-28T00:03:09.721Z,1003.21
2023-03-28T00:04:09.671Z,1003.26
2023-03-28T00:05:09.656Z,1003.25
2023-03-28T00:06:09.802Z,1003.22
2023-03-28T00:07:09.674Z,1003.22
2023-03-28T00:08:09.667Z,1003.21
2023-03-28T00:09:09.663Z,1003.24
2023-03-28T00:10:09.672Z,1003.24
2023-03-28T00:11:09.668Z,1003.27
2023-03-28T00:12:09.669Z,1003.28
2023-03-28T00:13:09.697Z,1003.32
2023-03-28T00:14:09.671Z,1003.29
2023-03-28T00:15:09.671Z,1003.29
2023-03-28T00:16:09.841Z,1003.33
2023-03-28T00:17:09.673Z,1003.32
2023-03-28T00:18:09.676Z,1003.35
2023-03-28T00:19:09.686Z,1003.34
2023-03-28T00:20:09.688Z,1003.39
2023-03-28T00:21:09.690Z,1003.39
2023-03-28T00:22:09.684Z,1003.35
2023-03-28T00:23:09.686Z,1003.39
2023-03-28T00:24:09.693Z,1003.33
2023-03-28T00:25:09.693Z,1003.38
2023-03-28T00:26:09.690Z,1003.37
2023-03-28T00:27:09.703Z,1003.43
2023-03-28T00:28:09.706Z,1003.40
2023-03-28T00:29:09.728Z,1003.45
2023-03-28T00:30:09.763Z,1003.44
2023-03-28T00:31:09.773Z,1003.43
2023-03-28T00:32:09.704Z,1003.47
2023-03-28T00:33:09.704Z,1003.44
2023-03-28T00:34:09.714Z,1003.43
2023-03-28T00:35:09.729Z,1003.42
2023-03-28T00:36:09.753Z,1003.45
2023-03-28T00:37:09.715Z,1003.42
2023-03-28T00:38:09.715Z,1003.47
2023-03-28T00:39:09.717Z,1003.47
2023-03-28T00:40:09.717Z,1003.46
2023-03-28T00:41:09.722Z,1003.46
2023-03-28T00:42:09.721Z,1003.52
2023-03-28T00:43:09.724Z,1003.52
2023-03-28T00:44:09.736Z,1003.47
2023-03-28T00:45:09.761Z,1003.48
2023-03-28T00:46:09.766Z,1003.48
2023-03-28T00:47:09.775Z,1003.50
2023-03-28T00:48:14.365Z,1003.54
2023-03-28T00:49:09.736Z,1003.55
2023-03-28T00:50:10.050Z,1003.59
2023-03-28T00:51:09.739Z,1003.61
2023-03-28T00:52:09.741Z,1003.60
2023-03-28T00:53:09.742Z,1003.61
2023-03-28T00:54:09.738Z,1003.63
2023-03-28T00:55:09.747Z,1003.60
2023-03-28T00:56:09.748Z,1003.59
2023-03-28T00:57:09.831Z,1003.63
2023-03-28T00:58:09.752Z,1003.65
2023-03-28T00:59:09.749Z,1003.72
2023-03-28T01:00:09.753Z,1003.73
2023-03-28T01:01:09.800Z,1003.68
2023-03-28T01:02:09.818Z,1003.68
2023-03-28T01:03:09.869Z,1003.74
2023-03-28T01:04:09.754Z,1003.76
2023-03-28T01:05:09.757Z,1003.76
2023-03-28T01:06:09.782Z,1003.79
2023-03-28T01:07:09.780Z,1003.80
2023-03-28T01:08:09.764Z,1003.79
2023-03-28T01:09:09.777Z,1003.86
2023-03-28T01:10:09.763Z,1003.86
2023-03-28T01:11:09.771Z,1003.81
2023-03-28T01:12:09.769Z,1003.83
2023-03-28T01:13:09.773Z,1003.87
2023-03-28T01:14:09.780Z,1003.86
2023-03-28T01:15:09.828Z,1003.90
2023-03-28T01:16:09.794Z,1003.86
2023-03-28T01:17:09.800Z,1003.85
2023-03-28T01:18:09.782Z,1003.87
2023-03-28T01:19:09.780Z,1003.86
2023-03-28T01:20:09.937Z,1003.84
2023-03-28T01:21:09.785Z,1003.90
2023-03-28T01:22:09.787Z,1003.90
2023-03-28T01:23:09.800Z,1003.86
2023-03-28T01:24:11.619Z,1003.90
2023-03-28T01:25:09.794Z,1003.91
2023-03-28T01:26:09.792Z,1003.90
2023-03-28T01:27:09.792Z,1003.92
2023-03-28T01:28:09.799Z,1003.96
2023-03-28T01:29:09.807Z,1003.94
2023-03-28T01:30:09.803Z,1003.94
2023-03-28T01:31:09.854Z,1003.97
2023-03-28T01:32:09.801Z,1003.98
2023-03-28T01:33:09.881Z,1003.96
2023-03-28T01:34:09.808Z,1003.97
2023-03-28T01:35:09.817Z,1004.00
2023-03-28T01:36:09.810Z,1004.00
2023-03-28T01:37:09.810Z,1004.01
2023-03-28T01:38:09.812Z,1004.01
2023-03-28T01:39:09.822Z,1004.01
2023-03-28T01:40:09.838Z,1004.03
2023-03-28T01:41:09.823Z,1004.00
2023-03-28T01:42:09.818Z,1004.05
2023-03-28T01:43:09.822Z,1004.04
2023-03-28T01:44:09.825Z,1004.03
2023-03-28T01:45:09.829Z,1004.08
2023-03-28T01:46:09.902Z,1004.08
2023-03-28T01:47:09.828Z,1004.12
2023-03-28T01:48:09.837Z,1004.15
2023-03-28T01:49:09.865Z,1004.12
2023-03-28T01:50:09.840Z,1004.14
2023-03-28T01:51:09.837Z,1004.14
2023-03-28T01:52:09.838Z,1004.17
2023-03-28T01:53:09.845Z,1004.14
2023-03-28T01:54:09.850Z,1004.18
2023-03-28T01:55:09.838Z,1004.18
2023-03-28T01:56:09.844Z,1004.20
2023-03-28T01:57:09.940Z,1004.19
2023-03-28T01:58:09.849Z,1004.20
2023-03-28T01:59:09.849Z,1004.19
2023-03-28T02:00:09.853Z,1004.23
2023-03-28T02:01:09.904Z,1004.24
2023-03-28T02:02:09.969Z,1004.22
2023-03-28T02:03:09.915Z,1004.26
2023-03-28T02:04:19.871Z,1004.21
2023-03-28T02:05:09.889Z,1004.20
2023-03-28T02:06:09.856Z,1004.22
2023-03-28T02:07:09.863Z,1004.28
2023-03-28T02:08:09.866Z,1004.20
2023-03-28T02:09:09.869Z,1004.25
2023-03-28T02:10:09.870Z,1004.25
2023-03-28T02:11:09.876Z,1004.25
2023-03-28T02:12:09.877Z,1004.25
2023-03-28T02:13:09.873Z,1004.24
2023-03-28T02:14:09.903Z,1004.24
2023-03-28T02:15:09.893Z,1004.26
2023-03-28T02:16:09.931Z,1004.25
2023-03-28T02:17:09.888Z,1004.27
2023-03-28T02:18:09.891Z,1004.25
2023-03-28T02:19:09.895Z,1004.28
2023-03-28T02:20:09.912Z,1004.30
2023-03-28T02:21:09.924Z,1004.30
2023-03-28T02:22:09.898Z,1004.31
2023-03-28T02:23:09.915Z,1004.34
2023-03-28T02:24:09.902Z,1004.35
2023-03-28T02:25:09.910Z,1004.39
2023-03-28T02:26:09.906Z,1004.43
2023-03-28T02:27:09.913Z,1004.41
2023-03-28T02:28:09.917Z,1004.41
2023-03-28T02:29:09.913Z,1004.43
2023-03-28T02:30:09.916Z,1004.49
2023-03-28T02:31:09.921Z,1004.48
2023-03-28T02:32:09.998Z,1004.48
2023-03-28T02:33:09.935Z,1004.50
2023-03-28T02:34:09.921Z,1004.52
2023-03-28T02:35:09.933Z,1004.51
2023-03-28T02:36:09.925Z,1004.56
2023-03-28T02:37:09.952Z,1004.55
2023-03-28T02:38:09.928Z,1004.54
2023-03-28T02:39:09.932Z,1004.58
2023-03-28T02:40:09.943Z,1004.58
2023-03-28T02:41:09.936Z,1004.59
2023-03-28T02:42:09.944Z,1004.59
2023-03-28T02:43:09.943Z,1004.59
2023-03-28T02:44:09.940Z,1004.57
2023-03-28T02:45:10.153Z,1004.60
2023-03-28T02:46:10.006Z,1004.63
2023-03-28T02:47:09.945Z,1004.62
2023-03-28T02:48:09.949Z,1004.61
2023-03-28T02:49:09.955Z,1004.67
2023-03-28T02:50:09.954Z,1004.66
2023-03-28T02:51:09.956Z,1004.68
2023-03-28T02:52:09.959Z,1004.70
2023-03-28T02:53:09.991Z,1004.71
2023-03-28T02:54:09.968Z,1004.74
2023-03-28T02:55:09.963Z,1004.68
2023-03-28T02:56:09.963Z,1004.70
2023-03-28T02:57:10.012Z,1004.70
2023-03-28T02:58:09.971Z,1004.73
2023-03-28T02:59:09.988Z,1004.73
2023-03-28T03:00:09.974Z,1004.79
2023-03-28T03:01:09.995Z,1004.78
2023-03-28T03:02:09.974Z,1004.81
2023-03-28T03:03:10.007Z,1004.79
2023-03-28T03:04:10.034Z,1004.80
2023-03-28T03:05:09.981Z,1004.84
2023-03-28T03:06:09.980Z,1004.77
2023-03-28T03:07:09.982Z,1004.83
2023-03-28T03:08:09.984Z,1004.83
2023-03-28T03:09:10.017Z,1004.86
2023-03-28T03:10:09.996Z,1004.84
2023-03-28T03:11:09.991Z,1004.83
2023-03-28T03:12:09.991Z,1004.82
2023-03-28T03:13:10.010Z,1004.88
2023-03-28T03:14:09.995Z,1004.81
2023-03-28T03:15:09.998Z,1004.87
2023-03-28T03:16:10.408Z,1004.80
2023-03-28T03:17:10.008Z,1004.89
2023-03-28T03:18:10.046Z,1004.84
2023-03-28T03:19:10.001Z,1004.87
2023-03-28T03:20:10.005Z,1004.94
2023-03-28T03:21:10.007Z,1004.86
2023-03-28T03:22:10.010Z,1004.90
2023-03-28T03:23:10.007Z,1004.90
2023-03-28T03:24:10.044Z,1004.90
2023-03-28T03:25:11.884Z,1004.88
2023-03-28T03:26:10.015Z,1004.88
2023-03-28T03:27:10.017Z,1004.88
2023-03-28T03:28:10.015Z,1004.92
2023-03-28T03:29:10.020Z,1004.84
2023-03-28T03:30:10.058Z,1004.85
2023-03-28T03:31:10.045Z,1004.87
2023-03-28T03:32:10.176Z,1004.85
2023-03-28T03:33:10.034Z,1004.88
2023-03-28T03:34:10.033Z,1004.84
2023-03-28T03:35:10.035Z,1004.82
2023-03-28T03:36:10.122Z,1004.85
2023-03-28T03:37:10.073Z,1004.84
2023-03-28T03:38:10.184Z,1004.85
2023-03-28T03:39:10.040Z,1004.89
2023-03-28T03:40:10.057Z,1004.85
2023-03-28T03:41:10.067Z,1004.85
2023-03-28T03:42:10.041Z,1004.88
2023-03-28T03:43:10.039Z,1004.87
2023-03-28T03:44:10.044Z,1004.90
2023-03-28T03:45:10.045Z,1004.87
2023-03-28T03:46:10.091Z,1004.91
2023-03-28T03:47:10.067Z,1004.91
2023-03-28T03:48:10.098Z,1004.94
2023-03-28T03:49:10.059Z,1004.93
2023-03-28T03:50:10.059Z,1004.98
2023-03-28T03:51:10.056Z,1005.00
2023-03-28T03:52:10.063Z,1004.97
2023-03-28T03:53:10.065Z,1004.97
2023-03-28T03:54:10.209Z,1004.97
2023-03-28T03:55:10.060Z,1004.95
2023-03-28T03:56:10.073Z,1004.99
2023-03-28T03:57:10.139Z,1004.97
2023-03-28T03:58:10.073Z,1005.02
2023-03-28T03:59:10.069Z,1005.02
2023-03-28T04:00:10.068Z,1005.04
2023-03-28T04:01:10.074Z,1005.02
2023-03-28T04:02:10.114Z,1005.03
2023-03-28T04:03:24.443Z,1005.06
2023-03-28T04:04:10.089Z,1005.10
2023-03-28T04:05:10.230Z,1005.04
2023-03-28T04:06:10.082Z,1005.07
2023-03-28T04:07:10.090Z,1005.12
2023-03-28T04:08:10.083Z,1005.13
2023-03-28T04:09:10.089Z,1005.10
2023-03-28T04:10:10.082Z,1005.14
2023-03-28T04:11:10.089Z,1005.13
2023-03-28T04:12:10.087Z,1005.18
2023-03-28T04:13:10.118Z,1005.19
2023-03-28T04:14:10.092Z,1005.20
2023-03-28T04:15:10.103Z,1005.17
2023-03-28T04:16:10.153Z,1005.19
2023-03-28T04:17:10.100Z,1005.23
2023-03-28T04:18:10.125Z,1005.20
2023-03-28T04:19:10.105Z,1005.19
2023-03-28T04:20:10.101Z,1005.18
2023-03-28T04:21:10.108Z,1005.20
2023-03-28T04:22:10.105Z,1005.20
2023-03-28T04:23:10.119Z,1005.22
2023-03-28T04:24:10.113Z,1005.20
2023-03-28T04:25:10.113Z,1005.21
2023-03-28T04:26:10.121Z,1005.17
2023-03-28T04:27:10.115Z,1005.16
2023-03-28T04:28:10.119Z,1005.22
2023-03-28T04:29:10.147Z,1005.24
2023-03-28T04:30:10.120Z,1005.22
2023-03-28T04:31:10.135Z,1005.27
2023-03-28T04:32:10.134Z,1005.28
2023-03-28T04:33:10.151Z,1005.26
2023-03-28T04:34:10.132Z,1005.32
2023-03-28T04:35:10.140Z,1005.31
2023-03-28T04:36:10.188Z,1005.29
2023-03-28T04:37:10.137Z,1005.32
2023-03-28T04:38:10.140Z,1005.35
2023-03-28T04:39:10.143Z,1005.33
2023-03-28T04:40:10.144Z,1005.37
2023-03-28T04:41:10.152Z,1005.35
2023-03-28T04:42:10.193Z,1005.36
2023-03-28T04:43:10.159Z,1005.42
2023-03-28T04:44:10.154Z,1005.39
2023-03-28T04:45:10.187Z,1005.40
2023-03-28T04:46:10.182Z,1005.44
2023-03-28T04:47:10.163Z,1005.45
2023-03-28T04:48:10.225Z,1005.48
2023-03-28T04:49:10.160Z,1005.46
2023-03-28T04:50:10.172Z,1005.47
2023-03-28T04:51:10.163Z,1005.49
2023-03-28T04:52:10.167Z,1005.56
2023-03-28T04:53:10.167Z,1005.54
2023-03-28T04:54:10.171Z,1005.53
2023-03-28T04:55:10.290Z,1005.56
2023-03-28T04:56:10.175Z,1005.59
2023-03-28T04:57:10.223Z,1005.59
2023-03-28T04:58:10.177Z,1005.61
2023-03-28T04:59:10.180Z,1005.58
2023-03-28T05:00:10.231Z,1005.64
2023-03-28T05:01:10.229Z,1005.65
2023-03-28T05:02:10.212Z,1005.65
2023-03-28T05:03:12.410Z,1005.69
2023-03-28T05:04:10.182Z,1005.71
2023-03-28T05:05:10.195Z,1005.71
2023-03-28T05:06:10.193Z,1005.69
2023-03-28T05:07:10.192Z,1005.67
2023-03-28T05:08:10.200Z,1005.70
2023-03-28T05:09:10.194Z,1005.70
2023-03-28T05:10:12.180Z,1005.73
2023-03-28T05:11:10.192Z,1005.71
2023-03-28T05:12:10.208Z,1005.73
2023-03-28T05:13:10.207Z,1005.70
2023-03-28T05:14:10.200Z,1005.72
2023-03-28T05:15:10.198Z,1005.70
2023-03-28T05:16:10.219Z,1005.74
2023-03-28T05:17:10.381Z,1005.74
2023-03-28T05:18:10.265Z,1005.72
2023-03-28T05:19:10.208Z,1005.74
2023-03-28T05:20:10.204Z,1005.78
2023-03-28T05:21:10.213Z,1005.77
2023-03-28T05:22:10.214Z,1005.80
2023-03-28T05:23:10.214Z,1005.78
2023-03-28T05:24:10.221Z,1005.75
2023-03-28T05:25:10.221Z,1005.79
2023-03-28T05:26:10.221Z,1005.79
2023-03-28T05:27:10.220Z,1005.80
2023-03-28T05:28:10.237Z,1005.84
2023-03-28T05:29:10.231Z,1005.86
2023-03-28T05:30:10.232Z,1005.85
2023-03-28T05:31:10.222Z,1005.88
2023-03-28T05:32:10.298Z,1005.90
2023-03-28T05:33:10.280Z,1005.87
2023-03-28T05:34:10.230Z,1005.88
2023-03-28T05:35:10.250Z,1005.87
2023-03-28T05:36:10.310Z,1005.87
2023-03-28T05:37:10.241Z,1005.89
2023-03-28T05:38:10.246Z,1005.90
2023-03-28T05:39:10.243Z,1005.91
2023-03-28T05:40:10.242Z,1005.91
2023-03-28T05:41:10.247Z,1005.94
2023-03-28T05:42:10.248Z,1005.95
2023-03-28T05:43:10.252Z,1005.94
2023-03-28T05:44:10.250Z,1005.97
2023-03-28T05:45:10.259Z,1005.95
2023-03-28T05:46:10.305Z,1005.96
2023-03-28T05:47:10.287Z,1005.95
2023-03-28T05:48:10.343Z,1005.95
2023-03-28T05:49:10.300Z,1006.00
2023-03-28T05:50:10.262Z,1005.99
2023-03-28T05:51:10.264Z,1006.00
2023-03-28T05:52:10.269Z,1006.04
2023-03-28T05:53:10.274Z,1006.04
2023-03-28T05:54:10.271Z,1006.07
2023-03-28T05:55:10.279Z,1006.10
2023-03-28T05:56:10.272Z,1006.10
2023-03-28T05:57:10.333Z,1006.14
2023-03-28T05:58:10.275Z,1006.09
2023-03-28T05:59:10.276Z,1006.18
2023-03-28T06:00:10.275Z,1006.16
2023-03-28T06:01:10.292Z,1006.19
2023-03-28T06:02:10.280Z,1006.21
2023-03-28T06:03:16.329Z,1006.22
2023-03-28T06:04:10.389Z,1006.23
2023-03-28T06:05:10.574Z,1006.25
2023-03-28T06:06:10.291Z,1006.25
2023-03-28T06:07:10.294Z,1006.23
2023-03-28T06:08:10.297Z,1006.27
2023-03-28T06:09:10.293Z,1006.28
2023-03-28T06:10:10.300Z,1006.31
2023-03-28T06:11:10.293Z,1006.33
2023-03-28T06:12:10.300Z,1006.36
2023-03-28T06:13:10.300Z,1006.39
2023-03-28T06:14:10.328Z,1006.38
2023-03-28T06:15:10.306Z,1006.41
2023-03-28T06:16:10.299Z,1006.42
2023-03-28T06:17:10.383Z,1006.40
2023-03-28T06:18:10.328Z,1006.40
2023-03-28T06:19:17.935Z,1006.38
2023-03-28T06:20:10.356Z,1006.46
2023-03-28T06:21:10.337Z,1006.45
2023-03-28T06:22:10.364Z,1006.52
2023-03-28T06:23:10.316Z,1006.48
2023-03-28T06:24:10.322Z,1006.53
2023-03-28T06:25:10.331Z,1006.47
2023-03-28T06:26:10.324Z,1006.49
2023-03-28T06:27:10.474Z,1006.47
2023-03-28T06:28:10.326Z,1006.53
2023-03-28T06:29:10.339Z,1006.52
2023-03-28T06:30:10.333Z,1006.51
2023-03-28T06:31:10.364Z,1006.55
2023-03-28T06:32:10.387Z,1006.52
2023-03-28T06:33:10.336Z,1006.50
2023-03-28T06:34:10.341Z,1006.52
2023-03-28T06:35:10.343Z,1006.55
2023-03-28T06:36:10.394Z,1006.55
2023-03-28T06:37:10.366Z,1006.54
2023-03-28T06:38:10.378Z,1006.56
2023-03-28T06:39:10.347Z,1006.55
2023-03-28T06:40:10.366Z,1006.54
2023-03-28T06:41:10.358Z,1006.56
2023-03-28T06:42:10.355Z,1006.54
2023-03-28T06:43:10.363Z,1006.56
2023-03-28T06:44:10.357Z,1006.54
2023-03-28T06:45:10.361Z,1006.56
2023-03-28T06:46:10.385Z,1006.53
2023-03-28T06:47:10.377Z,1006.56
2023-03-28T06:48:10.404Z,1006.55
2023-03-28T06:49:10.399Z,1006.60
2023-03-28T06:50:10.376Z,1006.60
2023-03-28T06:51:10.373Z,1006.61
2023-03-28T06:52:10.379Z,1006.63
2023-03-28T06:53:10.402Z,1006.63
2023-03-28T06:54:10.377Z,1006.63
2023-03-28T06:55:10.390Z,1006.66
2023-03-28T06:56:10.377Z,1006.69
2023-03-28T06:57:10.476Z,1006.65
2023-03-28T06:58:10.386Z,1006.66
2023-03-28T06:59:10.382Z,1006.66
2023-03-28T07:00:10.397Z,1006.62
2023-03-28T07:01:10.463Z,1006.67
2023-03-28T07:02:10.438Z,1006.66
2023-03-28T07:03:10.452Z,1006.60
2023-03-28T07:04:10.418Z,1006.66
2023-03-28T07:05:10.402Z,1006.65
2023-03-28T07:06:10.400Z,1006.60
2023-03-28T07:07:10.399Z,1006.65
2023-03-28T07:08:10.404Z,1006.67
2023-03-28T07:09:10.433Z,1006.64
2023-03-28T07:10:10.407Z,1006.71
2023-03-28T07:11:10.416Z,1006.68
2023-03-28T07:12:10.419Z,1006.67
2023-03-28T07:13:10.413Z,1006.70
2023-03-28T07:14:10.413Z,1006.70
2023-03-28T07:15:10.415Z,1006.70
2023-03-28T07:16:10.443Z,1006.73
2023-03-28T07:17:10.424Z,1006.75
2023-03-28T07:18:10.571Z,1006.76
2023-03-28T07:19:10.427Z,1006.72
2023-03-28T07:20:10.431Z,1006.74
2023-03-28T07:21:10.665Z,1006.77
2023-03-28T07:22:10.440Z,1006.78
2023-03-28T07:23:10.441Z,1006.81
2023-03-28T07:24:10.435Z,1006.75
2023-03-28T07:25:10.464Z,1006.78
2023-03-28T07:26:10.435Z,1006.79
2023-03-28T07:27:15.575Z,1006.79
2023-03-28T07:28:10.444Z,1006.81
2023-03-28T07:29:10.455Z,1006.87
2023-03-28T07:30:10.459Z,1006.84
2023-03-28T07:31:10.597Z,1006.82
2023-03-28T07:32:10.453Z,1006.81
2023-03-28T07:33:18.452Z,1006.79
2023-03-28T07:34:10.510Z,1006.75
2023-03-28T07:35:10.456Z,1006.79
2023-03-28T07:36:10.499Z,1006.79
2023-03-28T07:37:10.480Z,1006.77
2023-03-28T07:38:10.485Z,1006.76
2023-03-28T07:39:10.472Z,1006.75
2023-03-28T07:40:10.474Z,1006.78
2023-03-28T07:41:10.496Z,1006.77
2023-03-28T07:42:10.508Z,1006.78
2023-03-28T07:43:10.482Z,1006.81
2023-03-28T07:44:10.473Z,1006.82
2023-03-28T07:45:10.478Z,1006.87
2023-03-28T07:46:10.534Z,1006.89
2023-03-28T07:47:10.488Z,1006.91
2023-03-28T07:48:10.514Z,1006.88
2023-03-28T07:49:10.482Z,1006.91
2023-03-28T07:50:10.484Z,1006.91
2023-03-28T07:51:10.506Z,1006.95
2023-03-28T07:52:10.595Z,1006.92
2023-03-28T07:53:10.498Z,1006.92
2023-03-28T07:54:10.497Z,1006.91
2023-03-28T07:55:10.502Z,1006.94
2023-03-28T07:56:10.752Z,1006.99
2023-03-28T07:57:10.563Z,1006.99
2023-03-28T07:58:10.507Z,1006.99
2023-03-28T07:59:10.511Z,1006.99
2023-03-28T08:00:10.518Z,1007.02
2023-03-28T08:01:10.518Z,1007.05
2023-03-28T08:02:10.556Z,1007.05
2023-03-28T08:03:10.589Z,1007.10
2023-03-28T08:04:10.574Z,1007.07
2023-03-28T08:05:10.523Z,1007.13
2023-03-28T08:06:20.646Z,1007.14
2023-03-28T08:07:10.520Z,1007.07
2023-03-28T08:08:10.529Z,1007.12
2023-03-28T08:09:10.548Z,1007.07
2023-03-28T08:10:10.535Z,1007.15
2023-03-28T08:11:10.533Z,1007.08
2023-03-28T08:12:10.538Z,1007.10
2023-03-28T08:13:10.570Z,1007.13
2023-03-28T08:14:10.537Z,1007.16
2023-03-28T08:15:10.556Z,1007.16
2023-03-28T08:16:10.586Z,1007.16
2023-03-28T08:17:10.544Z,1007.13
2023-03-28T08:18:10.589Z,1007.12
2023-03-28T08:19:11.979Z,1007.16
2023-03-28T08:20:10.550Z,1007.18
2023-03-28T08:21:10.554Z,1007.11
2023-03-28T08:22:10.573Z,1007.16
2023-03-28T08:23:10.567Z,1007.18
2023-03-28T08:24:10.558Z,1007.16
2023-03-28T08:25:10.564Z,1007.15
2023-03-28T08:26:10.568Z,1007.14
2023-03-28T08:27:10.564Z,1007.13
2023-03-28T08:28:10.570Z,1007.20
2023-03-28T08:29:10.593Z,1007.20
2023-03-28T08:30:10.577Z,1007.26
2023-03-28T08:31:10.625Z,1007.24
2023-03-28T08:32:10.599Z,1007.22
2023-03-28T08:33:10.672Z,1007.25
2023-03-28T08:34:10.586Z,1007.27
2023-03-28T08:35:10.583Z,1007.30
2023-03-28T08:36:10.603Z,1007.28
2023-03-28T08:37:10.843Z,1007.34
2023-03-28T08:38:11.486Z,1007.36
2023-03-28T08:39:10.594Z,1007.38
2023-03-28T08:40:10.602Z,1007.41
2023-03-28T08:41:10.600Z,1007.31
2023-03-28T08:42:10.661Z,1007.34
2023-03-28T08:43:10.604Z,1007.40
2023-03-28T08:44:10.615Z,1007.34
2023-03-28T08:45:10.823Z,1007.37
2023-03-28T08:46:10.627Z,1007.47
2023-03-28T08:47:10.680Z,1007.44
2023-03-28T08:48:10.649Z,1007.44
2023-03-28T08:49:10.622Z,1007.42
2023-03-28T08:50:12.857Z,1007.46
2023-03-28T08:51:10.621Z,1007.50
2023-03-28T08:52:10.681Z,1007.50
2023-03-28T08:53:10.636Z,1007.46
2023-03-28T08:54:10.637Z,1007.46
2023-03-28T08:55:10.641Z,1007.44
2023-03-28T08:56:10.648Z,1007.56
2023-03-28T08:57:10.742Z,1007.50
2023-03-28T08:58:10.657Z,1007.47
2023-03-28T08:59:10.660Z,1007.54
2023-03-28T09:00:10.678Z,1007.53
2023-03-28T09:01:10.921Z,1007.53
2023-03-28T09:02:10.696Z,1007.44
2023-03-28T09:03:10.754Z,1007.46
2023-03-28T09:04:10.751Z,1007.47
2023-03-28T09:05:22.459Z,1007.45
2023-03-28T09:06:10.687Z,1007.47
2023-03-28T09:07:10.692Z,1007.49
2023-03-28T09:08:10.698Z,1007.53
2023-03-28T09:09:10.700Z,1007.49
2023-03-28T09:10:10.713Z,1007.56
2023-03-28T09:11:10.705Z,1007.51
2023-03-28T09:12:10.707Z,1007.53
2023-03-28T09:13:10.712Z,1007.54
2023-03-28T09:14:10.722Z,1007.52
2023-03-28T09:15:10.717Z,1007.66
2023-03-28T09:16:10.778Z,1007.58
2023-03-28T09:17:10.770Z,1007.54
2023-03-28T09:18:10.745Z,1007.49
2023-03-28T09:19:10.736Z,1007.49
2023-03-28T09:20:10.739Z,1007.49
2023-03-28T09:21:10.740Z,1007.49
2023-03-28T09:22:16.003Z,1007.56
2023-03-28T09:23:10.742Z,1007.52
2023-03-28T09:24:10.754Z,1007.57
2023-03-28T09:25:10.751Z,1007.56
2023-03-28T09:26:10.753Z,1007.62
2023-03-28T09:27:10.805Z,1007.64
2023-03-28T09:28:10.758Z,1007.70
2023-03-28T09:29:10.762Z,1007.63
2023-03-28T09:30:10.761Z,1007.56
2023-03-28T09:31:10.766Z,1007.55
2023-03-28T09:32:10.886Z,1007.74
2023-03-28T09:33:10.851Z,1007.61
2023-03-28T09:34:10.782Z,1007.63
2023-03-28T09:35:10.783Z,1007.71
2023-03-28T09:36:10.866Z,1007.66
2023-03-28T09:37:10.783Z,1007.67
2023-03-28T09:38:10.799Z,1007.67
2023-03-28T09:39:10.796Z,1007.67
2023-03-28T09:40:10.849Z,1007.69
2023-03-28T09:41:10.798Z,1007.67
2023-03-28T09:42:10.960Z,1007.81
2023-03-28T09:43:10.869Z,1007.66
2023-03-28T09:44:10.812Z,1007.68
2023-03-28T09:45:10.818Z,1007.70
2023-03-28T09:46:10.881Z,1007.71
2023-03-28T09:47:10.823Z,1007.70
2023-03-28T09:48:10.916Z,1007.71
2023-03-28T09:49:10.857Z,1007.75
2023-03-28T09:50:13.235Z,1007.76
2023-03-28T09:51:10.834Z,1007.74
2023-03-28T09:52:10.850Z,1008.01
2023-03-28T09:53:10.844Z,1007.85
2023-03-28T09:54:10.845Z,1007.75
2023-03-28T09:55:10.853Z,1007.79
2023-03-28T09:56:10.859Z,1007.82
2023-03-28T09:57:10.922Z,1007.81
2023-03-28T09:58:10.894Z,1007.84
2023-03-28T09:59:10.870Z,1007.90
2023-03-28T10:00:10.881Z,1007.91
2023-03-28T10:01:10.903Z,1007.82
2023-03-28T10:02:10.880Z,1007.81
2023-03-28T10:03:10.902Z,1007.78
2023-03-28T10:04:10.920Z,1007.85
2023-03-28T10:05:10.927Z,1007.84
2023-03-28T10:06:10.907Z,1007.86
2023-03-28T10:07:10.914Z,1007.84
2023-03-28T10:08:10.919Z,1007.86
2023-03-28T10:09:10.924Z,1007.91
2023-03-28T10:10:10.926Z,1007.89
2023-03-28T10:11:10.924Z,1008.02
2023-03-28T10:12:10.926Z,1007.90
2023-03-28T10:13:10.939Z,1007.88
2023-03-28T10:14:10.948Z,1007.92
2023-03-28T10:15:10.949Z,1007.91
2023-03-28T10:16:11.069Z,1007.87
2023-03-28T10:17:11.038Z,1007.98
2023-03-28T10:18:11.039Z,1007.97
2023-03-28T10:19:10.968Z,1007.93
2023-03-28T10:20:10.981Z,1007.91
2023-03-28T10:21:10.996Z,1007.90
2023-03-28T10:22:11.003Z,1007.88
2023-03-28T10:23:10.996Z,1007.90
2023-03-28T10:24:11.009Z,1007.91
2023-03-28T10:25:11.004Z,1007.94
2023-03-28T10:26:11.011Z,1007.96
2023-03-28T10:27:11.020Z,1007.98
2023-03-28T10:28:11.013Z,1007.99
2023-03-28T10:29:11.036Z,1007.90
2023-03-28T10:30:11.038Z,1007.96
2023-03-28T10:31:11.061Z,1007.95
2023-03-28T10:32:11.088Z,1007.95
2023-03-28T10:33:11.044Z,1007.90
2023-03-28T10:34:11.050Z,1007.93
2023-03-28T10:35:11.055Z,1007.94
2023-03-28T10:36:11.125Z,1007.97
2023-03-28T10:37:11.142Z,1007.95
2023-03-28T10:38:11.068Z,1007.96
2023-03-28T10:39:11.068Z,1007.97
2023-03-28T10:40:11.123Z,1007.96
2023-03-28T10:41:11.087Z,1008.00
2023-03-28T10:42:11.084Z,1008.00
2023-03-28T10:43:11.086Z,1008.04
2023-03-28T10:44:11.088Z,1008.04
2023-03-28T10:45:11.092Z,1008.03
2023-03-28T10:46:11.121Z,1008.05
2023-03-28T10:47:11.399Z,1008.07
2023-03-28T10:48:11.110Z,1008.11
2023-03-28T10:49:11.114Z,1008.14
2023-03-28T10:50:11.112Z,1008.11
2023-03-28T10:51:11.119Z,1008.05
2023-03-28T10:52:11.132Z,1008.04
2023-03-28T10:53:11.158Z,1008.04
2023-03-28T10:54:11.132Z,1008.04
2023-03-28T10:55:11.129Z,1008.05
2023-03-28T10:56:11.141Z,1007.99
2023-03-28T10:57:11.199Z,1008.01
2023-03-28T10:58:11.147Z,1008.04
2023-03-28T10:59:11.146Z,1008.02
2023-03-28T11:00:11.155Z,1008.07
2023-03-28T11:01:11.169Z,1008.05
2023-03-28T11:02:11.187Z,1008.08
2023-03-28T11:03:11.217Z,1008.10
2023-03-28T11:04:11.259Z,1008.09
2023-03-28T11:05:11.173Z,1008.07
2023-03-28T11:06:11.201Z,1008.10
2023-03-28T11:07:11.197Z,1008.12
2023-03-28T11:08:11.481Z,1008.11
2023-03-28T11:09:11.202Z,1008.12
2023-03-28T11:10:11.200Z,1008.14
2023-03-28T11:11:11.191Z,1008.10
2023-03-28T11:13:11.205Z,1008.13
2023-03-28T11:14:11.202Z,1008.20
2023-03-28T11:14:21.669Z,1008.14
2023-03-28T11:15:11.199Z,1008.15
2023-03-28T11:16:11.270Z,1008.18
2023-03-28T11:17:11.219Z,1008.18
2023-03-28T11:18:11.306Z,1008.20
2023-03-28T11:19:11.222Z,1008.15
2023-03-28T11:20:11.227Z,1008.18
2023-03-28T11:21:11.234Z,1008.15
2023-03-28T11:22:11.225Z,1008.12
2023-03-28T11:23:11.233Z,1008.21
2023-03-28T11:24:11.240Z,1008.16
2023-03-28T11:25:11.273Z,1008.14
2023-03-28T11:26:11.237Z,1008.19
2023-03-28T11:27:15.914Z,1008.16
2023-03-28T11:28:11.258Z,1008.15
2023-03-28T11:29:11.259Z,1008.18
2023-03-28T11:30:11.267Z,1008.15
2023-03-28T11:31:11.289Z,1008.16
2023-03-28T11:32:11.272Z,1008.16
2023-03-28T11:33:11.266Z,1008.16
2023-03-28T11:34:11.267Z,1008.21
2023-03-28T11:35:11.283Z,1008.17
2023-03-28T11:36:11.289Z,1008.24
2023-03-28T11:37:11.281Z,1008.24
2023-03-28T11:38:11.342Z,1008.21
2023-03-28T11:39:11.287Z,1008.26
2023-03-28T11:40:12.163Z,1008.27
2023-03-28T11:41:11.316Z,1008.31
2023-03-28T11:42:11.302Z,1008.30
2023-03-28T11:43:11.349Z,1008.29
2023-03-28T11:44:11.313Z,1008.29
2023-03-28T11:45:11.316Z,1008.32
2023-03-28T11:46:11.414Z,1008.32
2023-03-28T11:47:11.313Z,1008.32
2023-03-28T11:48:11.417Z,1008.38
2023-03-28T11:49:11.328Z,1008.33
2023-03-28T11:50:11.337Z,1008.45
2023-03-28T11:51:11.335Z,1008.35
2023-03-28T11:52:11.336Z,1008.44
2023-03-28T11:53:11.352Z,1008.34
2023-03-28T11:54:11.344Z,1008.36
2023-03-28T11:55:13.111Z,1008.38
2023-03-28T11:56:11.352Z,1008.43
2023-03-28T11:57:11.435Z,1008.42
2023-03-28T11:58:11.345Z,1008.47
2023-03-28T11:59:11.362Z,1008.45
2023-03-28T12:00:19.859Z,1008.48
2023-03-28T12:01:11.422Z,1008.48
2023-03-28T12:02:11.395Z,1008.50
2023-03-28T12:03:11.580Z,1008.48
2023-03-28T12:04:11.440Z,1008.50
2023-03-28T12:05:11.381Z,1008.52